Petoskey, MI (49770)

6:57 PM EDT on September 03, 2015 (GMT -0400)
APRSWXNET | | Change Station
CLOSE
Current Station
Personal Weather Station
Location: Petoskey, MI
Elevation: 748 ft
Nearby Weather Stations

Elev 748 ft 45.36 °N, 84.95 °W | Updated 21 minutes ago

Overcast
Overcast
70 °F
Feels Like 70 °F
N
3
Wind Variable Wind from East
Gusts 10.0 mph

Today
High -- | Low -- °F
--% Chance of Precip.
Yesterday
High -- | Low -- °F
Precip. -- in
7:03 AM 8:13 PM
Waning Gibbous, 66% visible
Pressure 29.92 in
Visibility 10.0 miles
Clouds Scattered Clouds 1300 ft
Mostly Cloudy 1800 ft
Overcast 2400 ft
Dew Point 67 °F
Humidity 90%
Rainfall in
Snow Depth Not available.
UV 0 out of 12
Pollen 9.80 out of 12
Air Quality Not available.
Flu Activity Not available.
METAR KMGN 032234Z AUTO 06007KT 10SM SCT013 BKN018 OVC024 21/18 A2992 RMK AO2 T02130190
Pressure 29.92 in
Visibility 10.0 miles
Clouds Scattered Clouds 1300 ft
Mostly Cloudy 1800 ft
Overcast 2400 ft
Dew Point 67 °F
Humidity 90%
Rainfall in
Snow Depth Not available.
UV 0 out of 12
Pollen 9.80 out of 12
Air Quality Not available.
Flu Activity Not available.
METAR KMGN 032234Z AUTO 06007KT 10SM SCT013 BKN018 OVC024 21/18 A2992 RMK AO2 T02130190
Nowcast | as of 6:00 PM EDT on September 3, 2015

At 7 PM...numerous showers. Temperature 71. East winds 9 mph. At 9 PM...partly cloudy. Temperature 68. East winds 9 mph. At 11 PM...partly cloudy. Temperature 68. Northeast winds 9 mph. At 1 am...partly cloudy. Isolated showers. Temperature 67. East winds 8 mph.

×

10-Day Weather Forecast

×

Almanac

Astronomy

Sep. 03, 2015 Rise Set
Actual Time
Civil Twilight
Nautical Twilight
Astronomical Twilight
Moon
Length of Visible Light
Length of Day
Tomorrow will be .
, % of the Moon is Illuminated

Today's Extremes

State Highs State Lows

Community

WunderPhotos

Upload Photos

1,852,049 photos uploaded!

WunderBlogs® & News

Nearby

Air Quality

  Air Quality AQ Index Pollutant
Not available.

Snow Depth

Station Depth Elevation

Earthquake Activity

City Distance Mag. Time & Date
Minimum magnitude displayed is 2.5.

Coastal Water Temperatures

Place Temperature

Stations

Nearby Weather Stations

Station Location Temp. Windchill Dew Point Humidity Wind Precip. Elev Updated Type